Terminal Aerodrome Forecast
Issued by NWS

Home | Current Version | Previous Version | Text Only | Print | Product List | Glossary On
Versions: 1 2 3 4 5 6 7 8 9 10 11 12 13 14 15 16 17 18 19 20 21 22 23 24
667
FTUS43 KEAX 142120 AAA
TAFSTJ
TAF AMD
KSTJ 142120Z 1421/1518 20007KT P6SM FEW035
     FM142200 20008KT P6SM VCTS SCT035CB SCT150
      TEMPO 1422/1424 5SM TSRA BKN040CB
     FM150000 16005KT P6SM SCT035 SCT150=

USA.gov is the U.S. government's official web portal to all federal, state and local government web resources and services.